Time;durP1;ratioP1;P1;durP2;ratioP2;P2;SDS_P1;SDS_P2;PMS_P1;PMS_P2;Temp;Humidity;BMP_temperature;BMP_pressure;BME280_temperature;BME280_humidity;BME280_pressure;Samples;Min_cycle;Max_cycle;Signal;HPM_P1;HPM_P2
2022/02/19 00:14:36;;;;;;;10.03;6.13;;;;;;;2.65;93.33;100196.28;31638540;28;20048;-76
2022/02/19 00:29:38;;;;;;;9.47;6.10;;;;;;;2.49;94.38;100206.41;31588965;28;20132;-76
2022/02/19 00:44:40;;;;;;;13.60;6.10;;;;;;;2.30;93.90;100212.66;31538545;28;20041;-75
2022/02/19 00:59:42;;;;;;;13.07;7.80;;;;;;;2.19;95.82;100222.41;31533426;28;20048;-76
2022/02/19 01:14:44;;;;;;;12.70;6.40;;;;;;;2.00;96.19;100242.00;31545317;28;20066;-75
2022/02/19 01:29:46;;;;;;;12.37;6.60;;;;;;;1.80;97.57;100243.19;31504434;28;20135;-78
2022/02/19 01:44:52;;;;;;;18.57;8.83;;;;;;;1.80;99.18;100245.06;31543570;28;20083;-75
2022/02/19 01:59:54;;;;;;;15.40;7.90;;;;;;;1.69;99.09;100269.72;31509360;28;20049;-75
2022/02/19 02:14:56;;;;;;;13.50;7.37;;;;;;;1.76;99.45;100279.03;31504977;28;20399;-76
2022/02/19 02:29:58;;;;;;;24.40;8.40;;;;;;;1.73;100.00;100320.66;31501463;28;20055;-73
2022/02/19 02:44:59;;;;;;;22.47;9.33;;;;;;;1.66;100.00;100313.25;31519260;28;20365;-74
2022/02/19 03:00:21;;;;;;;15.13;8.40;;;;;;;1.55;100.00;100347.06;31498184;28;20052;-74
2022/02/19 03:15:23;;;;;;;17.70;8.97;;;;;;;1.27;100.00;100354.47;31460493;28;20079;-74
2022/02/19 03:30:25;;;;;;;17.20;9.27;;;;;;;1.14;100.00;100343.13;31481723;28;20132;-74
2022/02/19 03:45:27;;;;;;;17.97;9.80;;;;;;;1.08;100.00;100349.09;31508538;28;20071;-74
2022/02/19 04:00:29;;;;;;;26.53;11.40;;;;;;;1.13;100.00;100351.50;31501230;28;20407;-73
2022/02/19 04:15:31;;;;;;;20.00;10.63;;;;;;;1.21;100.00;100353.19;31538451;28;20068;-75
2022/02/19 04:30:34;;;;;;;17.73;9.97;;;;;;;1.19;100.00;100358.13;31489100;28;20143;-76
2022/02/19 04:45:36;;;;;;;23.57;12.20;;;;;;;1.12;100.00;100366.00;31530703;28;20048;-76
2022/02/19 05:00:38;;;;;;;19.37;9.57;;;;;;;1.07;100.00;100390.31;31509393;28;20480;-74
2022/02/19 05:15:40;;;;;;;22.80;11.00;;;;;;;1.17;100.00;100414.66;31500650;28;20052;-76
2022/02/19 05:30:42;;;;;;;30.70;13.07;;;;;;;1.69;100.00;100426.84;31521064;28;20044;-74
2022/02/19 05:45:46;;;;;;;24.67;10.50;;;;;;;2.88;99.03;100445.59;31538941;28;20059;-76
2022/02/19 06:00:48;;;;;;;22.50;9.77;;;;;;;4.38;90.62;100454.59;31521238;28;20044;-74
2022/02/19 06:15:50;;;;;;;25.80;7.33;;;;;;;6.21;82.55;100463.66;31490969;28;20088;-73
2022/02/19 06:30:52;;;;;;;14.97;7.80;;;;;;;7.58;76.86;100469.56;31498604;28;20479;-73
2022/02/19 06:45:54;;;;;;;9.17;5.33;;;;;;;8.42;70.03;100475.13;31485481;28;20492;-74
2022/02/19 07:00:56;;;;;;;12.23;6.03;;;;;;;9.41;68.28;100471.75;31477061;28;20139;-72
2022/02/19 07:15:58;;;;;;;10.83;6.50;;;;;;;10.20;67.24;100458.13;31523878;28;20065;-75
2022/02/19 07:31:01;;;;;;;18.10;8.43;;;;;;;10.75;63.27;100449.63;31444214;28;20067;-74
2022/02/19 07:46:03;;;;;;;18.77;8.37;;;;;;;11.55;59.89;100447.94;31474258;28;20208;-78
2022/02/19 08:01:08;;;;;;;15.20;5.80;;;;;;;12.34;57.45;100461.56;31518255;28;20052;-75
2022/02/19 08:16:10;;;;;;;8.17;3.73;;;;;;;12.69;53.94;100438.22;31509760;28;20508;-73
2022/02/19 08:31:12;;;;;;;8.27;4.37;;;;;;;13.05;52.27;100431.91;31484708;28;20060;-73
2022/02/19 08:46:13;;;;;;;7.90;3.77;;;;;;;13.12;53.20;100437.97;31482612;28;20056;-72
2022/02/19 09:01:16;;;;;;;6.67;3.67;;;;;;;13.46;53.29;100439.50;31499301;28;20063;-75
2022/02/19 09:16:18;;;;;;;6.73;3.73;;;;;;;11.21;58.56;100438.03;31459130;28;20058;-73
2022/02/19 09:31:20;;;;;;;5.33;2.97;;;;;;;11.57;57.12;100391.19;31479943;28;20048;-74
2022/02/19 09:46:26;;;;;;;6.50;3.50;;;;;;;11.26;56.83;100418.53;31473220;28;20052;-73
2022/02/19 10:01:27;;;;;;;7.43;2.10;;;;;;;11.91;50.41;100429.00;31460425;28;20059;-73
2022/02/19 10:16:30;;;;;;;4.23;2.67;;;;;;;12.94;48.75;100411.16;31492539;28;20051;-71
2022/02/19 10:31:32;;;;;;;5.73;2.90;;;;;;;12.84;45.82;100422.31;31483242;28;20485;-75
2022/02/19 10:46:34;;;;;;;5.33;2.73;;;;;;;12.00;48.24;100414.84;31469981;28;20053;-77
2022/02/19 11:01:42;;;;;;;4.20;2.50;;;;;;;10.38;50.33;100371.84;31422973;28;20044;-73
2022/02/19 11:16:44;;;;;;;7.00;2.63;;;;;;;10.04;52.82;100352.91;31462465;28;20572;-72
2022/02/19 11:31:51;;;;;;;5.90;2.47;;;;;;;10.02;51.48;100359.91;31459340;28;20045;-71
2022/02/19 11:46:54;;;;;;;6.70;2.40;;;;;;;9.99;52.40;100334.38;31463944;28;20060;-71
2022/02/19 12:02:27;;;;;;;2.17;1.67;;;;;;;10.49;47.35;100301.09;31445207;28;20056;-74
2022/02/19 12:17:45;;;;;;;3.40;1.77;;;;;;;10.12;48.21;100304.75;31424573;28;20052;-70
2022/02/19 12:32:50;;;;;;;4.43;2.33;;;;;;;9.66;50.94;100333.25;31503790;28;20041;-71
2022/02/19 12:47:52;;;;;;;4.03;2.13;;;;;;;9.67;52.27;100329.38;31484098;28;20063;-74
2022/02/19 13:03:00;;;;;;;4.77;2.43;;;;;;;9.33;52.55;100298.81;31515217;28;20052;-69
2022/02/19 13:18:03;;;;;;;3.23;2.27;;;;;;;9.09;53.48;100328.47;31508630;28;20056;-71
2022/02/19 13:33:05;;;;;;;2.90;2.07;;;;;;;9.00;53.39;100316.56;31500567;28;20044;-71
2022/02/19 13:48:07;;;;;;;5.43;2.23;;;;;;;8.87;52.93;100278.41;31486707;28;20052;-71
2022/02/19 14:03:09;;;;;;;7.17;2.27;;;;;;;8.67;53.29;100270.09;31488733;28;20654;-72
2022/02/19 14:18:12;;;;;;;6.83;2.27;;;;;;;8.52;54.07;100258.59;31498573;28;20413;-73
2022/02/19 14:33:14;;;;;;;5.00;1.83;;;;;;;8.45;54.79;100247.88;31471758;28;20139;-72
2022/02/19 14:48:18;;;;;;;6.70;1.67;;;;;;;8.36;54.62;100249.50;31456572;28;20048;-72
2022/02/19 15:03:20;;;;;;;2.30;1.47;;;;;;;8.16;55.95;100231.06;31454578;28;20044;-71
2022/02/19 15:18:22;;;;;;;11.17;2.37;;;;;;;7.81;58.02;100215.88;31487874;28;20053;-74
2022/02/19 15:33:24;;;;;;;4.97;1.97;;;;;;;7.55;59.83;100216.44;31516697;28;20127;-75
2022/02/19 15:48:26;;;;;;;3.57;2.00;;;;;;;7.46;61.71;100203.34;31207101;28;20096;-78
2022/02/19 16:03:29;;;;;;;6.07;2.60;;;;;;;7.39;63.92;100205.31;31224261;28;20074;-75
2022/02/19 16:18:30;;;;;;;4.07;2.10;;;;;;;7.28;65.65;100221.59;31209887;28;20059;-75
2022/02/19 16:33:34;;;;;;;7.47;2.80;;;;;;;7.14;68.31;100219.69;31205155;28;20042;-76
2022/02/19 16:48:36;;;;;;;3.57;2.53;;;;;;;7.02;69.58;100214.72;31224867;28;20184;-77
2022/02/19 17:03:38;;;;;;;8.20;3.77;;;;;;;6.85;72.42;100204.75;31225004;28;20042;-75
2022/02/19 17:18:43;;;;;;;6.00;3.43;;;;;;;6.77;72.92;100211.34;31200127;28;20058;-75
2022/02/19 17:33:45;;;;;;;14.33;3.93;;;;;;;6.65;76.68;100188.22;31233027;28;20053;-76
2022/02/19 17:48:47;;;;;;;5.93;3.20;;;;;;;6.64;77.50;100207.50;31220394;28;20085;-76
2022/02/19 18:03:50;;;;;;;10.23;3.73;;;;;;;6.53;78.31;100183.25;31199903;28;20511;-76
2022/02/19 18:18:52;;;;;;;10.73;4.43;;;;;;;6.42;80.74;100204.84;31235529;28;20057;-75
2022/02/19 18:33:54;;;;;;;8.60;3.87;;;;;;;6.48;82.12;100199.84;31185849;28;20046;-75
2022/02/19 18:48:56;;;;;;;7.83;3.50;;;;;;;6.37;80.47;100166.72;31179908;28;20093;-75
2022/02/19 19:03:58;;;;;;;7.90;2.83;;;;;;;6.26;81.32;100163.28;31178180;28;20529;-75
2022/02/19 19:19:01;;;;;;;6.03;3.10;;;;;;;6.31;82.31;100187.16;31226571;28;20084;-74
2022/02/19 19:34:03;;;;;;;6.03;3.10;;;;;;;6.28;83.05;100191.38;31218294;28;20041;-76
2022/02/19 19:49:05;;;;;;;7.43;3.53;;;;;;;6.27;84.76;100187.16;31228058;28;20596;-77
2022/02/19 20:04:07;;;;;;;6.23;4.00;;;;;;;6.22;86.83;100222.56;31224839;28;20046;-76
2022/02/19 20:19:10;;;;;;;7.60;4.17;;;;;;;6.21;88.05;100233.75;31203872;28;20056;-77
2022/02/19 20:34:12;;;;;;;8.97;4.03;;;;;;;6.15;90.25;100253.00;31238274;28;20128;-74
2022/02/19 20:49:14;;;;;;;16.40;3.77;;;;;;;6.06;91.50;100235.66;31216129;28;20136;-74
2022/02/19 21:04:16;;;;;;;5.13;3.33;;;;;;;6.02;92.70;100259.16;31205887;28;20048;-74
2022/02/19 21:19:18;;;;;;;8.20;4.03;;;;;;;5.92;95.05;100241.03;31208694;28;20057;-75
2022/02/19 21:34:24;;;;;;;6.57;3.83;;;;;;;5.76;96.50;100244.84;31210967;28;20061;-75
2022/02/19 21:49:26;;;;;;;8.87;4.17;;;;;;;5.64;99.21;100245.19;31218958;28;20058;-74
2022/02/19 22:04:27;;;;;;;5.57;3.47;;;;;;;5.62;99.22;100239.41;31211947;28;20489;-75
2022/02/19 22:19:29;;;;;;;13.07;3.27;;;;;;;5.48;100.00;100237.44;31221794;28;20056;-74
2022/02/19 22:34:33;;;;;;;8.20;3.97;;;;;;;5.34;100.00;100234.72;31234586;28;20049;-74
2022/02/19 22:49:34;;;;;;;8.40;4.30;;;;;;;5.29;100.00;100237.75;31224380;28;20055;-74
2022/02/19 23:19:57;;;;;;;12.57;5.83;;;;;;;5.53;100.00;100241.69;31176193;28;20057;-72
2022/02/19 23:35:02;;;;;;;24.33;6.83;;;;;;;5.42;100.00;100212.06;31216456;28;20072;-72
2022/02/19 23:50:06;;;;;;;14.13;3.80;;;;;;;5.38;100.00;100207.81;31173442;28;20052;-73
